Terminal Aerodrome Forecast
Issued by NWS Spokane, WA

Home | Current Version | Previous Version | Text Only | Print | Product List | Glossary On
Versions: 1 2 3 4 5 6 7 8 9 10 11 12 13 14 15 16 17
000
FTUS46 KOTX 221139
TAFLWS
TAF
KLWS 221139Z 2212/2312 00000KT P6SM VCSH SCT025 OVC060
     FM221630 33003KT P6SM SCT030 BKN060
     FM230300 25006KT P6SM SCT020 BKN200=

USA.gov is the U.S. government's official web portal to all federal, state and local government web resources and services.